sensor_id;sensor_type;location;lat;lon;timestamp;P1;durP1;ratioP1;P2;durP2;ratioP2
6955;SDS011;50345;51.136;16.886;2024-02-14T00:01:52;74.10;;;46.90;;
6955;SDS011;50345;51.136;16.886;2024-02-14T00:04:18;67.77;;;43.13;;
6955;SDS011;50345;51.136;16.886;2024-02-14T00:06:45;72.03;;;43.05;;
6955;SDS011;50345;51.136;16.886;2024-02-14T00:09:10;67.30;;;42.93;;
6955;SDS011;50345;51.136;16.886;2024-02-14T00:11:36;65.77;;;42.93;;
6955;SDS011;50345;51.136;16.886;2024-02-14T00:14:02;73.33;;;43.33;;
6955;SDS011;50345;51.136;16.886;2024-02-14T00:16:28;70.23;;;42.33;;
6955;SDS011;50345;51.136;16.886;2024-02-14T00:18:56;72.35;;;43.65;;
6955;SDS011;50345;51.136;16.886;2024-02-14T00:21:22;82.40;;;49.87;;
6955;SDS011;50345;51.136;16.886;2024-02-14T00:23:49;81.00;;;47.45;;
6955;SDS011;50345;51.136;16.886;2024-02-14T00:26:15;72.88;;;46.88;;
6955;SDS011;50345;51.136;16.886;2024-02-14T00:28:41;70.83;;;45.40;;
6955;SDS011;50345;51.136;16.886;2024-02-14T00:31:06;100.43;;;66.77;;
6955;SDS011;50345;51.136;16.886;2024-02-14T00:33:32;149.90;;;81.93;;
6955;SDS011;50345;51.136;16.886;2024-02-14T00:35:58;121.87;;;71.00;;
6955;SDS011;50345;51.136;16.886;2024-02-14T00:38:23;107.03;;;62.83;;
6955;SDS011;50345;51.136;16.886;2024-02-14T00:40:49;99.80;;;59.10;;
6955;SDS011;50345;51.136;16.886;2024-02-14T00:43:14;89.97;;;55.47;;
6955;SDS011;50345;51.136;16.886;2024-02-14T00:45:40;87.23;;;51.53;;
6955;SDS011;50345;51.136;16.886;2024-02-14T00:48:06;89.07;;;50.00;;
6955;SDS011;50345;51.136;16.886;2024-02-14T00:50:32;76.22;;;47.78;;
6955;SDS011;50345;51.136;16.886;2024-02-14T00:52:58;79.15;;;48.40;;
6955;SDS011;50345;51.136;16.886;2024-02-14T00:55:24;77.30;;;49.88;;
6955;SDS011;50345;51.136;16.886;2024-02-14T00:57:50;80.50;;;48.47;;
6955;SDS011;50345;51.136;16.886;2024-02-14T01:00:16;82.53;;;50.80;;
6955;SDS011;50345;51.136;16.886;2024-02-14T01:02:42;71.72;;;47.25;;
6955;SDS011;50345;51.136;16.886;2024-02-14T01:05:08;79.82;;;48.65;;
6955;SDS011;50345;51.136;16.886;2024-02-14T01:07:34;77.07;;;47.58;;
6955;SDS011;50345;51.136;16.886;2024-02-14T01:10:00;79.70;;;48.10;;
6955;SDS011;50345;51.136;16.886;2024-02-14T01:12:25;83.43;;;49.20;;
6955;SDS011;50345;51.136;16.886;2024-02-14T01:14:51;83.97;;;50.90;;
6955;SDS011;50345;51.136;16.886;2024-02-14T01:17:17;79.07;;;48.37;;
6955;SDS011;50345;51.136;16.886;2024-02-14T01:19:42;93.20;;;54.30;;
6955;SDS011;50345;51.136;16.886;2024-02-14T01:22:08;106.72;;;58.55;;
6955;SDS011;50345;51.136;16.886;2024-02-14T01:24:34;103.07;;;56.53;;
6955;SDS011;50345;51.136;16.886;2024-02-14T01:27:00;123.67;;;61.60;;
6955;SDS011;50345;51.136;16.886;2024-02-14T01:29:25;114.27;;;61.50;;
6955;SDS011;50345;51.136;16.886;2024-02-14T01:31:51;115.70;;;64.18;;
6955;SDS011;50345;51.136;16.886;2024-02-14T01:34:17;107.27;;;62.20;;
6955;SDS011;50345;51.136;16.886;2024-02-14T01:36:43;135.23;;;68.97;;
6955;SDS011;50345;51.136;16.886;2024-02-14T01:39:08;108.47;;;64.80;;
6955;SDS011;50345;51.136;16.886;2024-02-14T01:41:43;120.40;;;65.97;;
6955;SDS011;50345;51.136;16.886;2024-02-14T01:44:11;119.70;;;63.92;;
6955;SDS011;50345;51.136;16.886;2024-02-14T01:46:37;107.33;;;65.17;;
6955;SDS011;50345;51.136;16.886;2024-02-14T01:49:03;111.50;;;65.82;;
6955;SDS011;50345;51.136;16.886;2024-02-14T01:51:29;115.87;;;66.47;;
6955;SDS011;50345;51.136;16.886;2024-02-14T01:53:56;109.03;;;62.10;;
6955;SDS011;50345;51.136;16.886;2024-02-14T01:56:23;104.95;;;62.60;;
6955;SDS011;50345;51.136;16.886;2024-02-14T01:58:50;103.05;;;65.78;;
6955;SDS011;50345;51.136;16.886;2024-02-14T02:01:17;112.75;;;71.15;;
6955;SDS011;50345;51.136;16.886;2024-02-14T02:03:43;105.03;;;64.82;;
6955;SDS011;50345;51.136;16.886;2024-02-14T02:06:09;110.63;;;62.90;;
6955;SDS011;50345;51.136;16.886;2024-02-14T02:08:34;103.07;;;61.50;;
6955;SDS011;50345;51.136;16.886;2024-02-14T02:11:00;100.50;;;62.33;;
6955;SDS011;50345;51.136;16.886;2024-02-14T02:13:26;111.80;;;61.23;;
6955;SDS011;50345;51.136;16.886;2024-02-14T02:15:52;108.50;;;60.30;;
6955;SDS011;50345;51.136;16.886;2024-02-14T02:18:18;101.97;;;58.05;;
6955;SDS011;50345;51.136;16.886;2024-02-14T02:20:44;105.22;;;56.78;;
6955;SDS011;50345;51.136;16.886;2024-02-14T02:23:11;104.57;;;57.75;;
6955;SDS011;50345;51.136;16.886;2024-02-14T02:25:40;101.07;;;56.83;;
6955;SDS011;50345;51.136;16.886;2024-02-14T02:28:06;101.25;;;58.88;;
6955;SDS011;50345;51.136;16.886;2024-02-14T02:30:33;97.50;;;56.53;;
6955;SDS011;50345;51.136;16.886;2024-02-14T02:33:03;107.60;;;57.88;;
6955;SDS011;50345;51.136;16.886;2024-02-14T02:35:29;111.88;;;64.90;;
6955;SDS011;50345;51.136;16.886;2024-02-14T02:37:55;109.67;;;63.67;;
6955;SDS011;50345;51.136;16.886;2024-02-14T02:40:21;108.03;;;63.90;;
6955;SDS011;50345;51.136;16.886;2024-02-14T02:42:48;96.05;;;64.18;;
6955;SDS011;50345;51.136;16.886;2024-02-14T02:45:15;102.53;;;62.40;;
6955;SDS011;50345;51.136;16.886;2024-02-14T02:47:41;97.47;;;61.58;;
6955;SDS011;50345;51.136;16.886;2024-02-14T02:50:07;107.33;;;58.87;;
6955;SDS011;50345;51.136;16.886;2024-02-14T02:52:33;112.80;;;60.80;;
6955;SDS011;50345;51.136;16.886;2024-02-14T02:54:59;109.95;;;60.03;;
6955;SDS011;50345;51.136;16.886;2024-02-14T02:57:30;113.88;;;58.35;;
6955;SDS011;50345;51.136;16.886;2024-02-14T02:59:57;107.07;;;61.17;;
6955;SDS011;50345;51.136;16.886;2024-02-14T03:02:23;95.27;;;55.97;;
6955;SDS011;50345;51.136;16.886;2024-02-14T03:04:50;85.55;;;52.92;;
6955;SDS011;50345;51.136;16.886;2024-02-14T03:07:16;95.80;;;54.80;;
6955;SDS011;50345;51.136;16.886;2024-02-14T03:09:41;83.03;;;54.87;;
6955;SDS011;50345;51.136;16.886;2024-02-14T03:12:07;83.57;;;50.00;;
6955;SDS011;50345;51.136;16.886;2024-02-14T03:14:34;81.32;;;50.13;;
6955;SDS011;50345;51.136;16.886;2024-02-14T03:17:04;89.57;;;53.30;;
6955;SDS011;50345;51.136;16.886;2024-02-14T03:19:30;84.82;;;51.03;;
6955;SDS011;50345;51.136;16.886;2024-02-14T03:21:56;93.38;;;56.78;;
6955;SDS011;50345;51.136;16.886;2024-02-14T03:24:21;88.00;;;56.30;;
6955;SDS011;50345;51.136;16.886;2024-02-14T03:26:50;94.35;;;55.55;;
6955;SDS011;50345;51.136;16.886;2024-02-14T03:29:16;87.78;;;56.55;;
6955;SDS011;50345;51.136;16.886;2024-02-14T03:31:42;85.00;;;52.77;;
6955;SDS011;50345;51.136;16.886;2024-02-14T03:34:09;84.20;;;51.33;;
6955;SDS011;50345;51.136;16.886;2024-02-14T03:36:36;91.85;;;52.00;;
6955;SDS011;50345;51.136;16.886;2024-02-14T03:39:02;89.15;;;53.80;;
6955;SDS011;50345;51.136;16.886;2024-02-14T03:41:29;80.45;;;51.90;;
6955;SDS011;50345;51.136;16.886;2024-02-14T03:43:55;86.83;;;53.93;;
6955;SDS011;50345;51.136;16.886;2024-02-14T03:46:23;86.50;;;53.72;;
6955;SDS011;50345;51.136;16.886;2024-02-14T03:48:49;90.35;;;54.17;;
6955;SDS011;50345;51.136;16.886;2024-02-14T03:51:15;100.93;;;57.50;;
6955;SDS011;50345;51.136;16.886;2024-02-14T03:53:41;100.15;;;57.17;;
6955;SDS011;50345;51.136;16.886;2024-02-14T03:56:07;109.70;;;58.80;;
6955;SDS011;50345;51.136;16.886;2024-02-14T03:58:32;92.33;;;58.03;;
6955;SDS011;50345;51.136;16.886;2024-02-14T04:01:02;99.20;;;56.85;;
6955;SDS011;50345;51.136;16.886;2024-02-14T04:03:30;88.53;;;56.72;;
6955;SDS011;50345;51.136;16.886;2024-02-14T04:05:56;91.10;;;56.30;;
6955;SDS011;50345;51.136;16.886;2024-02-14T04:08:22;91.60;;;55.30;;
6955;SDS011;50345;51.136;16.886;2024-02-14T04:10:47;95.30;;;57.30;;
6955;SDS011;50345;51.136;16.886;2024-02-14T04:13:15;80.88;;;52.85;;
6955;SDS011;50345;51.136;16.886;2024-02-14T04:15:41;92.25;;;51.55;;
6955;SDS011;50345;51.136;16.886;2024-02-14T04:18:08;98.57;;;56.53;;
6955;SDS011;50345;51.136;16.886;2024-02-14T04:20:34;90.50;;;53.53;;
6955;SDS011;50345;51.136;16.886;2024-02-14T04:23:00;92.03;;;55.25;;
6955;SDS011;50345;51.136;16.886;2024-02-14T04:25:25;92.03;;;54.40;;
6955;SDS011;50345;51.136;16.886;2024-02-14T04:27:51;90.90;;;53.00;;
6955;SDS011;50345;51.136;16.886;2024-02-14T04:30:17;90.23;;;55.83;;
6955;SDS011;50345;51.136;16.886;2024-02-14T04:32:42;94.37;;;54.57;;
6955;SDS011;50345;51.136;16.886;2024-02-14T04:35:08;94.37;;;58.67;;
6955;SDS011;50345;51.136;16.886;2024-02-14T04:37:34;102.35;;;53.95;;
6955;SDS011;50345;51.136;16.886;2024-02-14T04:40:00;94.73;;;51.70;;
6955;SDS011;50345;51.136;16.886;2024-02-14T04:42:29;87.65;;;52.13;;
6955;SDS011;50345;51.136;16.886;2024-02-14T04:44:54;75.93;;;47.35;;
6955;SDS011;50345;51.136;16.886;2024-02-14T04:47:20;91.23;;;54.77;;
6955;SDS011;50345;51.136;16.886;2024-02-14T04:49:46;86.28;;;49.47;;
6955;SDS011;50345;51.136;16.886;2024-02-14T04:52:12;92.90;;;52.47;;
6955;SDS011;50345;51.136;16.886;2024-02-14T04:54:37;93.30;;;48.83;;
6955;SDS011;50345;51.136;16.886;2024-02-14T04:57:03;65.60;;;42.93;;
6955;SDS011;50345;51.136;16.886;2024-02-14T04:59:29;74.30;;;40.95;;
6955;SDS011;50345;51.136;16.886;2024-02-14T05:01:55;64.55;;;39.38;;
6955;SDS011;50345;51.136;16.886;2024-02-14T05:04:21;63.23;;;42.03;;
6955;SDS011;50345;51.136;16.886;2024-02-14T05:06:47;63.83;;;41.85;;
6955;SDS011;50345;51.136;16.886;2024-02-14T05:09:13;64.20;;;40.85;;
6955;SDS011;50345;51.136;16.886;2024-02-14T05:11:40;66.70;;;41.13;;
6955;SDS011;50345;51.136;16.886;2024-02-14T05:14:06;62.13;;;40.17;;
6955;SDS011;50345;51.136;16.886;2024-02-14T05:16:32;69.07;;;40.53;;
6955;SDS011;50345;51.136;16.886;2024-02-14T05:18:57;61.37;;;39.67;;
6955;SDS011;50345;51.136;16.886;2024-02-14T05:21:23;72.27;;;40.73;;
6955;SDS011;50345;51.136;16.886;2024-02-14T05:23:48;71.17;;;41.47;;
6955;SDS011;50345;51.136;16.886;2024-02-14T05:26:15;66.47;;;38.67;;
6955;SDS011;50345;51.136;16.886;2024-02-14T05:28:41;72.47;;;40.33;;
6955;SDS011;50345;51.136;16.886;2024-02-14T05:31:07;62.25;;;38.13;;
6955;SDS011;50345;51.136;16.886;2024-02-14T05:33:33;63.97;;;37.60;;
6955;SDS011;50345;51.136;16.886;2024-02-14T05:35:58;77.37;;;40.97;;
6955;SDS011;50345;51.136;16.886;2024-02-14T05:38:24;68.77;;;40.20;;
6955;SDS011;50345;51.136;16.886;2024-02-14T05:40:49;67.47;;;41.53;;
6955;SDS011;50345;51.136;16.886;2024-02-14T05:43:15;59.70;;;38.00;;
6955;SDS011;50345;51.136;16.886;2024-02-14T05:45:43;63.17;;;35.97;;
6955;SDS011;50345;51.136;16.886;2024-02-14T05:48:08;50.87;;;33.97;;
6955;SDS011;50345;51.136;16.886;2024-02-14T05:50:34;57.57;;;33.37;;
6955;SDS011;50345;51.136;16.886;2024-02-14T05:53:00;63.17;;;35.20;;
6955;SDS011;50345;51.136;16.886;2024-02-14T05:55:26;48.58;;;32.17;;
6955;SDS011;50345;51.136;16.886;2024-02-14T05:57:52;48.33;;;29.80;;
6955;SDS011;50345;51.136;16.886;2024-02-14T06:00:18;55.10;;;31.70;;
6955;SDS011;50345;51.136;16.886;2024-02-14T06:02:45;48.38;;;32.50;;
6955;SDS011;50345;51.136;16.886;2024-02-14T06:05:14;50.78;;;32.58;;
6955;SDS011;50345;51.136;16.886;2024-02-14T06:07:41;54.85;;;32.22;;
6955;SDS011;50345;51.136;16.886;2024-02-14T06:10:07;39.10;;;30.58;;
6955;SDS011;50345;51.136;16.886;2024-02-14T06:12:34;47.03;;;29.88;;
6955;SDS011;50345;51.136;16.886;2024-02-14T06:15:00;48.55;;;30.88;;
6955;SDS011;50345;51.136;16.886;2024-02-14T06:17:26;50.08;;;30.13;;
6955;SDS011;50345;51.136;16.886;2024-02-14T06:19:52;40.73;;;28.30;;
6955;SDS011;50345;51.136;16.886;2024-02-14T06:22:18;44.05;;;28.30;;
6955;SDS011;50345;51.136;16.886;2024-02-14T06:24:45;69.65;;;45.95;;
6955;SDS011;50345;51.136;16.886;2024-02-14T06:27:13;46.60;;;32.85;;
6955;SDS011;50345;51.136;16.886;2024-02-14T06:29:41;47.70;;;30.77;;
6955;SDS011;50345;51.136;16.886;2024-02-14T06:32:07;47.22;;;30.35;;
6955;SDS011;50345;51.136;16.886;2024-02-14T06:34:33;47.40;;;29.30;;
6955;SDS011;50345;51.136;16.886;2024-02-14T06:36:58;42.63;;;30.20;;
6955;SDS011;50345;51.136;16.886;2024-02-14T06:39:24;44.20;;;30.10;;
6955;SDS011;50345;51.136;16.886;2024-02-14T06:41:50;51.00;;;30.87;;
6955;SDS011;50345;51.136;16.886;2024-02-14T06:44:15;45.73;;;30.20;;
6955;SDS011;50345;51.136;16.886;2024-02-14T06:46:41;52.93;;;33.10;;
6955;SDS011;50345;51.136;16.886;2024-02-14T06:49:07;47.50;;;33.03;;
6955;SDS011;50345;51.136;16.886;2024-02-14T06:51:33;47.25;;;32.35;;
6955;SDS011;50345;51.136;16.886;2024-02-14T06:53:59;55.57;;;34.47;;
6955;SDS011;50345;51.136;16.886;2024-02-14T06:56:25;41.10;;;30.77;;
6955;SDS011;50345;51.136;16.886;2024-02-14T06:58:50;51.73;;;33.27;;
6955;SDS011;50345;51.136;16.886;2024-02-14T07:01:18;51.38;;;32.80;;
6955;SDS011;50345;51.136;16.886;2024-02-14T07:03:47;46.08;;;33.40;;
6955;SDS011;50345;51.136;16.886;2024-02-14T07:06:13;58.35;;;37.50;;
6955;SDS011;50345;51.136;16.886;2024-02-14T07:08:41;54.03;;;35.23;;
6955;SDS011;50345;51.136;16.886;2024-02-14T07:11:07;48.10;;;31.55;;
6955;SDS011;50345;51.136;16.886;2024-02-14T07:13:32;50.40;;;34.93;;
6955;SDS011;50345;51.136;16.886;2024-02-14T07:15:58;58.30;;;34.83;;
6955;SDS011;50345;51.136;16.886;2024-02-14T07:18:23;49.13;;;34.50;;
6955;SDS011;50345;51.136;16.886;2024-02-14T07:20:49;45.83;;;35.90;;
6955;SDS011;50345;51.136;16.886;2024-02-14T07:23:15;44.83;;;32.80;;
6955;SDS011;50345;51.136;16.886;2024-02-14T07:25:42;46.20;;;31.73;;
6955;SDS011;50345;51.136;16.886;2024-02-14T07:28:08;36.58;;;30.00;;
6955;SDS011;50345;51.136;16.886;2024-02-14T07:30:33;40.97;;;30.07;;
6955;SDS011;50345;51.136;16.886;2024-02-14T07:32:59;41.17;;;31.07;;
6955;SDS011;50345;51.136;16.886;2024-02-14T07:35:24;42.87;;;30.13;;
6955;SDS011;50345;51.136;16.886;2024-02-14T07:37:50;47.93;;;29.87;;
6955;SDS011;50345;51.136;16.886;2024-02-14T07:40:17;35.97;;;25.05;;
6955;SDS011;50345;51.136;16.886;2024-02-14T07:42:42;39.23;;;25.63;;
6955;SDS011;50345;51.136;16.886;2024-02-14T07:45:08;37.37;;;24.57;;
6955;SDS011;50345;51.136;16.886;2024-02-14T07:47:34;37.80;;;23.35;;
6955;SDS011;50345;51.136;16.886;2024-02-14T07:49:59;30.80;;;21.47;;
6955;SDS011;50345;51.136;16.886;2024-02-14T07:52:25;32.53;;;21.17;;
6955;SDS011;50345;51.136;16.886;2024-02-14T07:54:53;33.17;;;22.57;;
6955;SDS011;50345;51.136;16.886;2024-02-14T07:57:20;30.27;;;20.55;;
6955;SDS011;50345;51.136;16.886;2024-02-14T07:59:49;32.28;;;20.45;;
6955;SDS011;50345;51.136;16.886;2024-02-14T08:02:18;27.42;;;20.33;;
6955;SDS011;50345;51.136;16.886;2024-02-14T08:04:44;27.98;;;21.30;;
6955;SDS011;50345;51.136;16.886;2024-02-14T08:07:10;25.20;;;18.63;;
6955;SDS011;50345;51.136;16.886;2024-02-14T08:09:36;29.37;;;18.60;;
6955;SDS011;50345;51.136;16.886;2024-02-14T08:12:03;27.02;;;19.17;;
6955;SDS011;50345;51.136;16.886;2024-02-14T08:14:29;28.50;;;21.15;;
6955;SDS011;50345;51.136;16.886;2024-02-14T08:16:55;23.57;;;18.03;;
6955;SDS011;50345;51.136;16.886;2024-02-14T08:19:21;24.90;;;18.67;;
6955;SDS011;50345;51.136;16.886;2024-02-14T08:21:46;25.70;;;19.47;;
6955;SDS011;50345;51.136;16.886;2024-02-14T08:24:12;25.17;;;17.83;;
6955;SDS011;50345;51.136;16.886;2024-02-14T08:26:37;27.27;;;18.70;;
6955;SDS011;50345;51.136;16.886;2024-02-14T08:29:03;23.47;;;16.80;;
6955;SDS011;50345;51.136;16.886;2024-02-14T08:31:29;25.03;;;17.03;;
6955;SDS011;50345;51.136;16.886;2024-02-14T08:33:55;22.55;;;17.48;;
6955;SDS011;50345;51.136;16.886;2024-02-14T08:36:21;19.27;;;16.13;;
6955;SDS011;50345;51.136;16.886;2024-02-14T08:38:47;19.53;;;16.70;;
6955;SDS011;50345;51.136;16.886;2024-02-14T08:41:13;21.43;;;16.20;;
6955;SDS011;50345;51.136;16.886;2024-02-14T08:43:39;23.20;;;16.90;;
6955;SDS011;50345;51.136;16.886;2024-02-14T08:46:09;22.07;;;16.50;;
6955;SDS011;50345;51.136;16.886;2024-02-14T08:48:35;20.90;;;15.45;;
6955;SDS011;50345;51.136;16.886;2024-02-14T08:51:01;18.40;;;14.07;;
6955;SDS011;50345;51.136;16.886;2024-02-14T08:53:28;19.17;;;14.45;;
6955;SDS011;50345;51.136;16.886;2024-02-14T08:55:54;16.53;;;13.73;;
6955;SDS011;50345;51.136;16.886;2024-02-14T08:58:20;18.00;;;14.10;;
6955;SDS011;50345;51.136;16.886;2024-02-14T09:00:47;18.23;;;13.27;;
6955;SDS011;50345;51.136;16.886;2024-02-14T09:03:13;19.30;;;13.65;;
6955;SDS011;50345;51.136;16.886;2024-02-14T09:05:39;15.60;;;12.20;;
6955;SDS011;50345;51.136;16.886;2024-02-14T09:08:04;13.80;;;12.30;;
6955;SDS011;50345;51.136;16.886;2024-02-14T09:10:30;19.10;;;13.43;;
6955;SDS011;50345;51.136;16.886;2024-02-14T09:12:56;21.00;;;12.00;;
6955;SDS011;50345;51.136;16.886;2024-02-14T09:15:22;14.80;;;12.37;;
6955;SDS011;50345;51.136;16.886;2024-02-14T09:17:47;16.40;;;12.10;;
6955;SDS011;50345;51.136;16.886;2024-02-14T09:20:13;15.37;;;11.53;;
6955;SDS011;50345;51.136;16.886;2024-02-14T09:22:39;12.53;;;10.93;;
6955;SDS011;50345;51.136;16.886;2024-02-14T09:25:06;14.38;;;10.77;;
6955;SDS011;50345;51.136;16.886;2024-02-14T09:27:34;10.82;;;9.40;;
6955;SDS011;50345;51.136;16.886;2024-02-14T09:30:00;10.60;;;9.50;;
6955;SDS011;50345;51.136;16.886;2024-02-14T09:32:32;11.85;;;10.65;;
6955;SDS011;50345;51.136;16.886;2024-02-14T09:34:59;12.75;;;10.38;;
6955;SDS011;50345;51.136;16.886;2024-02-14T09:37:25;12.85;;;9.90;;
6955;SDS011;50345;51.136;16.886;2024-02-14T09:39:51;11.40;;;10.27;;
6955;SDS011;50345;51.136;16.886;2024-02-14T09:42:18;11.33;;;10.17;;
6955;SDS011;50345;51.136;16.886;2024-02-14T09:44:50;10.07;;;9.07;;
6955;SDS011;50345;51.136;16.886;2024-02-14T09:47:23;11.13;;;8.70;;
6955;SDS011;50345;51.136;16.886;2024-02-14T09:49:49;13.43;;;9.68;;
6955;SDS011;50345;51.136;16.886;2024-02-14T09:52:17;9.27;;;8.27;;
6955;SDS011;50345;51.136;16.886;2024-02-14T09:54:44;10.73;;;9.10;;
6955;SDS011;50345;51.136;16.886;2024-02-14T09:57:10;9.47;;;8.60;;
6955;SDS011;50345;51.136;16.886;2024-02-14T09:59:38;10.05;;;9.05;;
6955;SDS011;50345;51.136;16.886;2024-02-14T10:02:04;12.73;;;10.35;;
6955;SDS011;50345;51.136;16.886;2024-02-14T10:04:30;10.03;;;8.90;;
6955;SDS011;50345;51.136;16.886;2024-02-14T10:06:56;10.00;;;9.00;;
6955;SDS011;50345;51.136;16.886;2024-02-14T10:09:21;10.27;;;8.57;;
6955;SDS011;50345;51.136;16.886;2024-02-14T10:11:47;10.10;;;8.97;;
6955;SDS011;50345;51.136;16.886;2024-02-14T10:14:14;9.88;;;8.30;;
6955;SDS011;50345;51.136;16.886;2024-02-14T10:16:40;10.00;;;8.65;;
6955;SDS011;50345;51.136;16.886;2024-02-14T10:19:14;11.20;;;9.20;;
6955;SDS011;50345;51.136;16.886;2024-02-14T10:21:40;8.30;;;7.60;;
6955;SDS011;50345;51.136;16.886;2024-02-14T10:24:06;8.23;;;7.50;;
6955;SDS011;50345;51.136;16.886;2024-02-14T10:26:32;8.50;;;7.80;;
6955;SDS011;50345;51.136;16.886;2024-02-14T10:28:59;14.63;;;8.57;;
6955;SDS011;50345;51.136;16.886;2024-02-14T10:31:25;10.10;;;8.70;;
6955;SDS011;50345;51.136;16.886;2024-02-14T10:33:51;9.52;;;8.13;;
6955;SDS011;50345;51.136;16.886;2024-02-14T10:36:19;9.70;;;8.07;;
6955;SDS011;50345;51.136;16.886;2024-02-14T10:38:46;7.88;;;7.07;;
6955;SDS011;50345;51.136;16.886;2024-02-14T10:41:14;9.00;;;7.45;;
6955;SDS011;50345;51.136;16.886;2024-02-14T10:43:41;10.35;;;7.80;;
6955;SDS011;50345;51.136;16.886;2024-02-14T10:46:09;8.37;;;6.73;;
6955;SDS011;50345;51.136;16.886;2024-02-14T10:48:50;8.55;;;7.85;;
6955;SDS011;50345;51.136;16.886;2024-02-14T10:51:23;8.47;;;7.63;;
6955;SDS011;50345;51.136;16.886;2024-02-14T10:53:52;8.17;;;6.97;;
6955;SDS011;50345;51.136;16.886;2024-02-14T10:56:20;8.77;;;7.60;;
6955;SDS011;50345;51.136;16.886;2024-02-14T10:58:48;9.10;;;7.87;;
6955;SDS011;50345;51.136;16.886;2024-02-14T11:01:17;7.90;;;7.10;;
6955;SDS011;50345;51.136;16.886;2024-02-14T11:03:45;8.17;;;7.37;;
6955;SDS011;50345;51.136;16.886;2024-02-14T11:06:15;8.47;;;7.67;;
6955;SDS011;50345;51.136;16.886;2024-02-14T11:11:41;8.90;;;7.70;;
6955;SDS011;50345;51.136;16.886;2024-02-14T11:14:08;7.70;;;6.90;;
6955;SDS011;50345;51.136;16.886;2024-02-14T11:16:36;8.53;;;7.10;;
6955;SDS011;50345;51.136;16.886;2024-02-14T11:19:06;7.75;;;6.93;;
6955;SDS011;50345;51.136;16.886;2024-02-14T11:21:35;6.90;;;6.30;;
6955;SDS011;50345;51.136;16.886;2024-02-14T11:24:06;8.83;;;6.93;;
6955;SDS011;50345;51.136;16.886;2024-02-14T11:27:09;7.20;;;6.47;;
6955;SDS011;50345;51.136;16.886;2024-02-14T11:29:30;9.47;;;6.40;;
6955;SDS011;50345;51.136;16.886;2024-02-14T11:31:59;7.23;;;6.63;;
6955;SDS011;50345;51.136;16.886;2024-02-14T11:34:26;7.83;;;6.90;;
6955;SDS011;50345;51.136;16.886;2024-02-14T11:36:52;6.40;;;5.80;;
6955;SDS011;50345;51.136;16.886;2024-02-14T11:39:18;7.90;;;5.93;;
6955;SDS011;50345;51.136;16.886;2024-02-14T11:41:45;6.20;;;5.43;;
6955;SDS011;50345;51.136;16.886;2024-02-14T11:44:11;5.70;;;4.93;;
6955;SDS011;50345;51.136;16.886;2024-02-14T11:46:39;6.35;;;5.47;;
6955;SDS011;50345;51.136;16.886;2024-02-14T11:49:05;6.87;;;5.40;;
6955;SDS011;50345;51.136;16.886;2024-02-14T11:51:32;5.60;;;4.60;;
6955;SDS011;50345;51.136;16.886;2024-02-14T11:54:00;5.97;;;5.25;;
6955;SDS011;50345;51.136;16.886;2024-02-14T11:56:33;5.32;;;4.75;;
6955;SDS011;50345;51.136;16.886;2024-02-14T11:59:01;8.10;;;4.35;;
6955;SDS011;50345;51.136;16.886;2024-02-14T12:01:34;7.72;;;4.30;;
6955;SDS011;50345;51.136;16.886;2024-02-14T12:04:02;6.05;;;4.55;;
6955;SDS011;50345;51.136;16.886;2024-02-14T12:06:30;5.47;;;3.80;;
6955;SDS011;50345;51.136;16.886;2024-02-14T12:08:59;4.43;;;4.03;;
6955;SDS011;50345;51.136;16.886;2024-02-14T12:11:37;3.60;;;3.30;;
6955;SDS011;50345;51.136;16.886;2024-02-14T12:14:07;8.93;;;4.18;;
6955;SDS011;50345;51.136;16.886;2024-02-14T12:16:34;3.67;;;3.38;;
6955;SDS011;50345;51.136;16.886;2024-02-14T12:19:05;5.63;;;2.83;;
6955;SDS011;50345;51.136;16.886;2024-02-14T12:21:35;4.25;;;3.58;;
6955;SDS011;50345;51.136;16.886;2024-02-14T12:24:01;3.30;;;2.60;;
6955;SDS011;50345;51.136;16.886;2024-02-14T12:26:28;4.75;;;3.40;;
6955;SDS011;50345;51.136;16.886;2024-02-14T12:28:56;4.13;;;3.03;;
6955;SDS011;50345;51.136;16.886;2024-02-14T12:31:24;4.17;;;2.87;;
6955;SDS011;50345;51.136;16.886;2024-02-14T12:33:50;3.78;;;3.35;;
6955;SDS011;50345;51.136;16.886;2024-02-14T12:36:19;3.40;;;2.88;;
6955;SDS011;50345;51.136;16.886;2024-02-14T12:38:45;7.47;;;5.60;;
6955;SDS011;50345;51.136;16.886;2024-02-14T12:41:10;7.43;;;5.00;;
6955;SDS011;50345;51.136;16.886;2024-02-14T12:43:36;18.33;;;5.60;;
6955;SDS011;50345;51.136;16.886;2024-02-14T12:46:02;16.27;;;8.43;;
6955;SDS011;50345;51.136;16.886;2024-02-14T12:48:29;6.97;;;5.85;;
6955;SDS011;50345;51.136;16.886;2024-02-14T12:50:55;9.93;;;6.80;;
6955;SDS011;50345;51.136;16.886;2024-02-14T12:53:21;8.85;;;6.15;;
6955;SDS011;50345;51.136;16.886;2024-02-14T12:55:47;3.88;;;3.50;;
6955;SDS011;50345;51.136;16.886;2024-02-14T12:58:13;5.73;;;4.00;;
6955;SDS011;50345;51.136;16.886;2024-02-14T13:00:40;7.35;;;3.67;;
6955;SDS011;50345;51.136;16.886;2024-02-14T13:03:07;5.43;;;4.55;;
6955;SDS011;50345;51.136;16.886;2024-02-14T13:05:35;3.65;;;3.35;;
6955;SDS011;50345;51.136;16.886;2024-02-14T13:08:01;6.07;;;3.87;;
6955;SDS011;50345;51.136;16.886;2024-02-14T13:10:27;4.57;;;2.97;;
6955;SDS011;50345;51.136;16.886;2024-02-14T13:12:54;3.72;;;3.42;;
6955;SDS011;50345;51.136;16.886;2024-02-14T13:15:19;3.73;;;3.17;;
6955;SDS011;50345;51.136;16.886;2024-02-14T13:17:45;6.38;;;3.75;;
6955;SDS011;50345;51.136;16.886;2024-02-14T13:20:11;3.50;;;3.17;;
6955;SDS011;50345;51.136;16.886;2024-02-14T13:22:37;4.27;;;2.83;;
6955;SDS011;50345;51.136;16.886;2024-02-14T13:25:03;4.40;;;2.90;;
6955;SDS011;50345;51.136;16.886;2024-02-14T13:27:30;3.33;;;3.00;;
6955;SDS011;50345;51.136;16.886;2024-02-14T13:29:55;5.33;;;3.40;;
6955;SDS011;50345;51.136;16.886;2024-02-14T13:32:21;5.83;;;3.67;;
6955;SDS011;50345;51.136;16.886;2024-02-14T13:34:47;4.80;;;3.13;;
6955;SDS011;50345;51.136;16.886;2024-02-14T13:37:13;4.05;;;3.65;;
6955;SDS011;50345;51.136;16.886;2024-02-14T13:39:39;4.85;;;3.78;;
6955;SDS011;50345;51.136;16.886;2024-02-14T13:42:05;4.20;;;3.40;;
6955;SDS011;50345;51.136;16.886;2024-02-14T13:44:32;4.50;;;3.33;;
6955;SDS011;50345;51.136;16.886;2024-02-14T13:46:58;3.70;;;2.60;;
6955;SDS011;50345;51.136;16.886;2024-02-14T13:49:24;4.57;;;3.70;;
6955;SDS011;50345;51.136;16.886;2024-02-14T13:51:51;5.72;;;3.95;;
6955;SDS011;50345;51.136;16.886;2024-02-14T13:54:20;4.82;;;3.00;;
6955;SDS011;50345;51.136;16.886;2024-02-14T13:56:46;5.05;;;4.57;;
6955;SDS011;50345;51.136;16.886;2024-02-14T13:59:15;5.28;;;3.75;;
6955;SDS011;50345;51.136;16.886;2024-02-14T14:01:41;4.23;;;3.43;;
6955;SDS011;50345;51.136;16.886;2024-02-14T14:04:07;4.10;;;3.70;;
6955;SDS011;50345;51.136;16.886;2024-02-14T14:06:32;4.20;;;3.87;;
6955;SDS011;50345;51.136;16.886;2024-02-14T14:08:59;4.13;;;3.55;;
6955;SDS011;50345;51.136;16.886;2024-02-14T14:11:25;9.25;;;3.55;;
6955;SDS011;50345;51.136;16.886;2024-02-14T14:13:51;4.33;;;3.87;;
6955;SDS011;50345;51.136;16.886;2024-02-14T14:16:16;5.07;;;4.13;;
6955;SDS011;50345;51.136;16.886;2024-02-14T14:18:42;6.80;;;5.30;;
6955;SDS011;50345;51.136;16.886;2024-02-14T14:21:08;6.73;;;4.00;;
6955;SDS011;50345;51.136;16.886;2024-02-14T14:23:33;7.50;;;4.53;;
6955;SDS011;50345;51.136;16.886;2024-02-14T14:25:59;6.90;;;4.90;;
6955;SDS011;50345;51.136;16.886;2024-02-14T14:28:26;5.70;;;4.65;;